Time;durP1;ratioP1;P1;durP2;ratioP2;P2;SDS_P1;SDS_P2;PMS_P1;PMS_P2;Temp;Humidity;BMP_temperature;BMP_pressure;BME280_temperature;BME280_humidity;BME280_pressure;Samples;Min_cycle;Max_cycle;Signal;HPM_P1;HPM_P2
2023/05/19 00:02:25;;;;;;;4.18;2.50;;;;;;;13.54;31.11;102134.34;5042196;28;20144;-68
2023/05/19 00:04:54;;;;;;;4.22;2.25;;;;;;;13.51;31.12;102137.38;5018246;28;20048;-69
2023/05/19 00:07:30;;;;;;;4.10;2.60;;;;;;;13.52;31.57;102130.88;5040048;28;20065;-68
2023/05/19 00:09:58;;;;;;;5.22;2.55;;;;;;;13.47;31.20;102131.22;5034678;28;20088;-68
2023/05/19 00:12:27;;;;;;;4.32;2.22;;;;;;;13.48;31.05;102129.34;5032805;28;20091;-68
2023/05/19 00:14:55;;;;;;;5.63;2.47;;;;;;;13.45;31.21;102130.47;5015433;28;20045;-69
2023/05/19 00:17:25;;;;;;;4.72;2.63;;;;;;;13.45;31.08;102132.34;5036472;28;20163;-68
2023/05/19 00:19:53;;;;;;;4.25;2.50;;;;;;;13.42;31.10;102132.59;5023420;28;20148;-68
2023/05/19 00:22:21;;;;;;;5.68;2.40;;;;;;;13.40;31.04;102124.47;5026570;28;20415;-68
2023/05/19 00:24:49;;;;;;;3.70;2.22;;;;;;;13.40;30.91;102129.09;5033419;28;20033;-69
2023/05/19 00:27:17;;;;;;;5.15;2.30;;;;;;;13.39;31.12;102130.09;5042089;28;20237;-68
2023/05/19 00:29:45;;;;;;;3.85;2.35;;;;;;;13.37;30.88;102124.72;5038295;28;20051;-68
2023/05/19 00:32:13;;;;;;;3.80;2.50;;;;;;;13.36;30.96;102124.84;5042400;28;20146;-69
2023/05/19 00:34:42;;;;;;;3.90;2.13;;;;;;;13.36;31.27;102125.72;5010512;28;20420;-69
2023/05/19 00:37:10;;;;;;;5.53;2.30;;;;;;;13.32;31.19;102126.06;5039529;28;20072;-69
2023/05/19 00:39:38;;;;;;;4.43;2.28;;;;;;;13.29;31.09;102126.31;5023087;28;20497;-69
2023/05/19 00:42:06;;;;;;;4.45;2.30;;;;;;;13.28;31.37;102128.22;5034401;28;20038;-68
2023/05/19 00:44:39;;;;;;;5.40;2.38;;;;;;;13.28;31.43;102125.47;5018824;28;20076;-69
2023/05/19 00:47:07;;;;;;;5.22;2.40;;;;;;;13.21;31.88;102121.41;5034541;28;20049;-68
2023/05/19 00:49:36;;;;;;;4.68;2.45;;;;;;;13.21;31.36;102125.03;5036960;28;20048;-68
2023/05/19 00:52:07;;;;;;;6.40;2.65;;;;;;;13.22;31.50;102128.66;5038049;28;20099;-68
2023/05/19 00:54:35;;;;;;;5.05;2.60;;;;;;;13.17;31.29;102120.81;5043190;28;20045;-69
2023/05/19 00:57:03;;;;;;;6.63;2.50;;;;;;;13.17;31.37;102120.81;5033989;28;20045;-68
2023/05/19 00:59:31;;;;;;;4.88;2.42;;;;;;;13.15;31.55;102120.03;5044899;28;20099;-68
2023/05/19 01:02:01;;;;;;;3.47;2.20;;;;;;;13.14;31.58;102120.16;5012644;28;20108;-68
2023/05/19 01:04:33;;;;;;;5.38;2.47;;;;;;;13.13;31.81;102121.16;5018611;28;20505;-68
2023/05/19 01:07:01;;;;;;;3.47;2.13;;;;;;;13.09;31.83;102120.53;5040590;28;20095;-69
2023/05/19 01:09:31;;;;;;;4.72;2.72;;;;;;;13.11;31.86;102115.78;5041488;28;20033;-68
2023/05/19 01:11:59;;;;;;;3.97;2.35;;;;;;;13.09;31.82;102111.41;5012122;28;20041;-69
2023/05/19 01:14:28;;;;;;;4.55;2.38;;;;;;;13.09;31.58;102117.78;5016863;28;20056;-68
2023/05/19 01:17:04;;;;;;;5.15;2.50;;;;;;;13.09;32.44;102114.16;5041524;28;20041;-69
2023/05/19 01:20:00;;;;;;;5.03;2.45;;;;;;;13.07;32.31;102117.03;5040842;28;20048;-69
2023/05/19 01:22:47;;;;;;;3.47;2.10;;;;;;;13.04;31.91;102110.88;5035683;28;20041;-68
2023/05/19 01:25:45;;;;;;;4.32;2.10;;;;;;;12.99;32.35;102114.00;5042716;28;20336;-68
2023/05/19 01:28:31;;;;;;;4.53;2.33;;;;;;;13.00;32.51;102103.88;5041032;28;20102;-68
2023/05/19 01:31:03;;;;;;;3.75;2.17;;;;;;;12.97;31.81;102102.25;5033118;28;20047;-69
2023/05/19 01:33:32;;;;;;;3.58;2.13;;;;;;;12.93;31.95;102103.50;5038774;28;20033;-68
2023/05/19 01:36:03;;;;;;;4.13;2.60;;;;;;;12.95;32.14;102103.38;5018587;28;20058;-69
2023/05/19 01:38:34;;;;;;;3.75;2.25;;;;;;;12.95;32.28;102103.38;5022965;28;20045;-69
2023/05/19 01:41:03;;;;;;;4.78;2.35;;;;;;;12.92;31.70;102098.97;5019603;28;20049;-68
2023/05/19 01:43:33;;;;;;;4.10;2.30;;;;;;;12.91;31.64;102096.34;5039547;28;20128;-68
2023/05/19 01:46:03;;;;;;;4.38;2.22;;;;;;;12.90;31.97;102100.09;5015917;28;20128;-68
2023/05/19 01:48:33;;;;;;;5.72;2.60;;;;;;;12.86;32.03;102103.09;5038466;28;20111;-69
2023/05/19 01:51:01;;;;;;;5.28;2.25;;;;;;;12.83;32.47;102102.44;5024382;28;20041;-69
2023/05/19 01:53:29;;;;;;;4.00;2.50;;;;;;;12.80;32.31;102106.28;5047929;28;20086;-69
2023/05/19 01:55:57;;;;;;;4.55;2.20;;;;;;;12.79;32.31;102107.28;5040117;28;20139;-68
2023/05/19 01:58:34;;;;;;;4.13;2.38;;;;;;;12.79;32.72;102110.03;5038483;28;20103;-69
2023/05/19 02:01:14;;;;;;;4.57;2.42;;;;;;;12.77;32.70;102112.03;5023826;28;20496;-68
2023/05/19 02:04:01;;;;;;;4.45;2.15;;;;;;;12.75;32.97;102118.66;5040258;28;20095;-69
2023/05/19 02:06:36;;;;;;;3.85;2.30;;;;;;;12.71;32.85;102108.88;5023541;28;20045;-68
2023/05/19 02:09:12;;;;;;;4.05;2.15;;;;;;;12.69;32.48;102114.50;5031379;28;20040;-68
2023/05/19 02:11:47;;;;;;;3.45;2.03;;;;;;;12.67;32.92;102112.88;5043340;28;20393;-67
2023/05/19 02:14:20;;;;;;;4.75;2.50;;;;;;;12.65;32.51;102118.47;5038347;28;20045;-68
2023/05/19 02:16:50;;;;;;;3.47;2.08;;;;;;;12.61;32.25;102114.19;5014328;28;20491;-68
2023/05/19 02:19:23;;;;;;;5.28;2.10;;;;;;;12.61;32.53;102116.94;5019119;28;20080;-68
2023/05/19 02:21:51;;;;;;;4.70;2.15;;;;;;;12.55;32.33;102117.38;5019204;28;20109;-68
2023/05/19 02:24:22;;;;;;;4.60;2.30;;;;;;;12.54;32.23;102112.91;5042024;28;20036;-68
2023/05/19 02:26:51;;;;;;;4.88;2.85;;;;;;;12.53;32.49;102113.03;5041746;28;20500;-68
2023/05/19 02:29:19;;;;;;;3.45;2.28;;;;;;;12.50;32.61;102114.13;5021112;28;20038;-68
2023/05/19 02:31:48;;;;;;;3.83;2.40;;;;;;;12.48;32.37;102110.59;5040098;28;20060;-68
2023/05/19 02:34:16;;;;;;;4.03;2.28;;;;;;;12.46;33.02;102107.09;5022431;28;20104;-68
2023/05/19 02:36:44;;;;;;;4.28;2.30;;;;;;;12.43;33.05;102097.25;5012812;28;20576;-69
2023/05/19 02:39:12;;;;;;;3.95;2.20;;;;;;;12.42;33.00;102105.59;5023058;28;20103;-69
2023/05/19 02:41:40;;;;;;;5.03;2.47;;;;;;;12.40;32.56;102102.06;5026593;28;20045;-69
2023/05/19 02:44:08;;;;;;;4.93;2.22;;;;;;;12.38;32.87;102106.78;5022171;28;20051;-69
2023/05/19 02:46:36;;;;;;;5.30;2.90;;;;;;;12.37;32.93;102105.06;5023748;28;20045;-68
2023/05/19 02:49:06;;;;;;;4.43;2.35;;;;;;;12.36;32.84;102100.56;5046587;28;20061;-71
2023/05/19 02:51:34;;;;;;;4.78;2.50;;;;;;;12.31;32.69;102102.75;5043889;28;20044;-69
2023/05/19 02:54:01;;;;;;;4.68;2.40;;;;;;;12.28;33.39;102087.41;5025544;28;20037;-69
2023/05/19 02:56:29;;;;;;;4.93;2.60;;;;;;;12.24;33.31;102096.88;5026774;28;20045;-69
2023/05/19 02:58:58;;;;;;;5.07;2.50;;;;;;;12.21;33.38;102097.13;5039608;28;20076;-70
2023/05/19 03:01:25;;;;;;;5.05;3.20;;;;;;;12.16;33.48;102087.44;5023491;28;20071;-69
2023/05/19 03:03:53;;;;;;;4.93;2.42;;;;;;;12.12;33.68;102084.09;5025118;28;20065;-69
2023/05/19 03:06:23;;;;;;;6.00;3.00;;;;;;;12.07;33.78;102083.53;5042038;28;20049;-68
2023/05/19 03:08:51;;;;;;;4.85;2.83;;;;;;;12.02;33.59;102092.13;5022657;28;20459;-68
2023/05/19 03:11:19;;;;;;;6.30;3.20;;;;;;;11.97;33.64;102087.94;5025507;28;20492;-68
2023/05/19 03:13:47;;;;;;;4.55;2.75;;;;;;;11.94;33.43;102091.81;5020372;28;20080;-68
2023/05/19 03:16:15;;;;;;;6.05;2.65;;;;;;;11.91;33.47;102100.25;5039611;28;20084;-69
2023/05/19 03:18:43;;;;;;;5.32;2.95;;;;;;;11.90;33.47;102095.75;5043220;28;20043;-68
2023/05/19 03:21:11;;;;;;;6.47;2.90;;;;;;;11.88;33.95;102099.63;5042795;28;20052;-68
2023/05/19 03:23:40;;;;;;;4.68;3.00;;;;;;;11.88;33.45;102097.75;5043907;28;20503;-68
2023/05/19 03:26:09;;;;;;;3.85;2.70;;;;;;;11.85;33.70;102100.72;5019380;28;20065;-68
2023/05/19 03:28:37;;;;;;;4.75;2.78;;;;;;;11.84;33.87;102101.69;5019551;28;20045;-68
2023/05/19 03:31:05;;;;;;;5.60;2.60;;;;;;;11.83;34.13;102102.69;5043540;28;20041;-68
2023/05/19 03:33:37;;;;;;;4.93;2.45;;;;;;;11.81;33.78;102088.19;5015756;28;20136;-69
2023/05/19 03:36:07;;;;;;;5.80;2.53;;;;;;;11.83;33.61;102094.44;5021142;28;20128;-69
2023/05/19 03:38:38;;;;;;;5.82;3.17;;;;;;;11.79;33.75;102090.19;5022783;28;20102;-69
2023/05/19 03:41:07;;;;;;;4.57;2.40;;;;;;;11.83;33.84;102090.84;5016453;28;20045;-69
2023/05/19 03:43:35;;;;;;;4.05;2.40;;;;;;;11.80;33.62;102086.44;5021421;28;20044;-69
2023/05/19 03:46:05;;;;;;;4.03;2.60;;;;;;;11.80;33.79;102088.34;5037520;28;20132;-70
2023/05/19 03:48:42;;;;;;;5.10;2.60;;;;;;;11.79;34.03;102094.81;5035086;28;20049;-69
2023/05/19 03:51:24;;;;;;;5.95;2.90;;;;;;;11.77;33.90;102083.06;5019970;28;20046;-69
2023/05/19 03:53:55;;;;;;;5.53;2.67;;;;;;;11.78;33.95;102099.41;5018963;28;20037;-69
2023/05/19 03:56:26;;;;;;;4.40;2.53;;;;;;;11.80;33.51;102091.91;5026827;28;20049;-69
2023/05/19 03:58:54;;;;;;;5.68;2.95;;;;;;;11.78;33.74;102093.94;5025438;28;20081;-69
2023/05/19 04:01:22;;;;;;;5.28;2.90;;;;;;;11.77;33.90;102089.44;5033264;28;20115;-69
2023/05/19 04:03:50;;;;;;;5.50;2.85;;;;;;;11.76;33.63;102087.66;5015293;28;20071;-69
2023/05/19 04:06:18;;;;;;;4.55;2.50;;;;;;;11.76;34.11;102093.16;5036044;28;20140;-69
2023/05/19 04:08:46;;;;;;;4.40;2.60;;;;;;;11.75;34.02;102083.16;5018861;28;20041;-69
2023/05/19 04:11:15;;;;;;;4.85;2.85;;;;;;;11.75;33.80;102085.91;5017571;28;20451;-69
2023/05/19 04:13:45;;;;;;;4.10;2.47;;;;;;;11.76;33.96;102093.16;5044407;28;20040;-69
2023/05/19 04:16:13;;;;;;;5.10;2.67;;;;;;;11.75;33.93;102088.66;5019122;28;20555;-69
2023/05/19 04:18:41;;;;;;;5.53;2.63;;;;;;;11.72;34.17;102089.75;5036966;28;20060;-69
2023/05/19 04:21:09;;;;;;;4.45;2.65;;;;;;;11.73;34.25;102096.09;5034404;28;20512;-69
2023/05/19 04:23:38;;;;;;;5.95;2.80;;;;;;;11.71;34.23;102092.63;5014598;28;20281;-68
2023/05/19 04:26:06;;;;;;;4.65;2.90;;;;;;;11.69;34.37;102090.00;5028189;28;20381;-69
2023/05/19 04:28:37;;;;;;;4.60;2.75;;;;;;;11.68;33.96;102090.97;5021168;28;20119;-68
2023/05/19 04:31:09;;;;;;;4.00;2.42;;;;;;;11.69;34.47;102086.38;5038864;28;20420;-68
2023/05/19 04:33:38;;;;;;;5.22;2.47;;;;;;;11.65;34.48;102088.44;5020198;28;20041;-68
2023/05/19 04:36:09;;;;;;;5.35;2.45;;;;;;;11.65;34.00;102090.31;5031484;28;20110;-68
2023/05/19 04:38:39;;;;;;;4.93;2.45;;;;;;;11.65;34.40;102084.81;5019616;28;20431;-68
2023/05/19 04:41:09;;;;;;;6.25;2.67;;;;;;;11.64;34.58;102092.16;5019422;28;20060;-68
2023/05/19 04:43:43;;;;;;;5.63;2.15;;;;;;;11.64;34.49;102086.69;5026153;28;20057;-68
2023/05/19 04:46:13;;;;;;;;;;;;;;;11.37;35.11;102091.41;5020535;28;20045;-67
2023/05/19 04:48:43;;;;;;;4.78;2.20;;;;;;;11.59;34.69;102093.47;5027212;28;20412;-68
2023/05/19 04:51:12;;;;;;;4.25;2.17;;;;;;;11.62;34.47;102096.03;5027245;28;20569;-68
2023/05/19 04:53:42;;;;;;;4.47;2.35;;;;;;;11.64;34.22;102103.13;5024846;28;20075;-68
2023/05/19 04:56:14;;;;;;;6.15;3.08;;;;;;;11.63;34.20;102104.16;5020662;28;20103;-68
2023/05/19 04:58:43;;;;;;;5.38;2.50;;;;;;;11.64;34.29;102096.78;5027321;28;20041;-67
2023/05/19 05:01:14;;;;;;;4.68;2.33;;;;;;;11.66;34.78;102101.16;5027453;28;20053;-68
2023/05/19 05:03:43;;;;;;;4.20;2.42;;;;;;;11.65;34.85;102095.78;5016790;28;20046;-67
2023/05/19 05:06:11;;;;;;;4.82;2.60;;;;;;;11.70;34.84;102097.22;5026413;28;20064;-69
2023/05/19 05:08:40;;;;;;;3.40;2.20;;;;;;;11.78;34.80;102091.19;5027881;28;20151;-67
2023/05/19 05:11:09;;;;;;;4.68;2.28;;;;;;;11.85;35.24;102088.88;5022428;28;20049;-69
2023/05/19 05:13:37;;;;;;;4.05;2.20;;;;;;;11.95;34.88;102092.69;5027808;28;20049;-69
2023/05/19 05:16:07;;;;;;;3.95;2.20;;;;;;;12.07;35.10;102098.13;5018509;28;20057;-69
2023/05/19 05:18:38;;;;;;;6.32;2.50;;;;;;;12.22;35.04;102096.09;5027913;28;20044;-69
2023/05/19 05:21:07;;;;;;;5.28;2.70;;;;;;;12.37;34.90;102105.94;5043873;28;20312;-68
2023/05/19 05:23:36;;;;;;;4.45;2.28;;;;;;;12.50;35.24;102097.66;5030217;28;20083;-68
2023/05/19 05:26:10;;;;;;;5.30;2.40;;;;;;;12.68;34.97;102099.03;5027845;28;20125;-68
2023/05/19 05:28:39;;;;;;;4.30;2.30;;;;;;;12.82;34.81;102090.56;5026822;28;20531;-68
2023/05/19 05:31:07;;;;;;;4.97;2.17;;;;;;;12.99;34.87;102097.50;5026003;28;20148;-68
2023/05/19 05:33:38;;;;;;;5.55;2.30;;;;;;;13.18;34.56;102097.81;5027536;28;20079;-68
2023/05/19 05:36:09;;;;;;;3.75;2.17;;;;;;;13.35;34.12;102093.72;5024146;28;20059;-67
2023/05/19 05:38:37;;;;;;;6.43;2.33;;;;;;;13.48;34.66;102102.72;5028421;28;20034;-68
2023/05/19 05:41:05;;;;;;;4.15;2.22;;;;;;;13.65;34.36;102092.28;5032735;28;20057;-68
2023/05/19 05:43:34;;;;;;;3.88;2.25;;;;;;;13.78;33.83;102101.28;5042294;28;20087;-69
2023/05/19 05:46:03;;;;;;;4.50;2.05;;;;;;;13.93;33.69;102098.16;5011007;28;20042;-68
2023/05/19 05:48:32;;;;;;;3.65;2.00;;;;;;;14.07;34.00;102097.00;5034256;28;20052;-70
2023/05/19 05:51:02;;;;;;;4.68;2.08;;;;;;;14.21;33.23;102098.59;5025521;28;20041;-69
2023/05/19 05:53:37;;;;;;;4.95;2.10;;;;;;;14.35;33.56;102088.19;5026028;28;20044;-68
2023/05/19 05:56:06;;;;;;;4.20;2.22;;;;;;;14.47;33.25;102085.41;5030236;28;20052;-69
2023/05/19 05:58:42;;;;;;;5.07;2.17;;;;;;;14.59;33.25;102089.91;5017642;28;20071;-60
2023/05/19 06:01:11;;;;;;;4.55;2.35;;;;;;;14.71;33.26;102088.84;5016750;28;20073;-59
2023/05/19 06:03:40;;;;;;;5.72;2.28;;;;;;;14.83;32.84;102081.41;5020028;28;20038;-58
2023/05/19 06:06:11;;;;;;;5.00;2.28;;;;;;;14.96;32.41;102093.13;5012774;28;20056;-60
2023/05/19 06:08:40;;;;;;;4.10;2.10;;;;;;;15.04;32.78;102077.66;5021541;28;20041;-59
2023/05/19 06:11:08;;;;;;;5.65;2.25;;;;;;;15.11;32.12;102072.47;5021902;28;20048;-58
2023/05/19 06:13:40;;;;;;;4.88;2.20;;;;;;;15.21;31.82;102075.31;5030653;28;20055;-60
2023/05/19 06:16:11;;;;;;;5.00;2.20;;;;;;;15.26;32.16;102078.56;5023786;28;20049;-59
2023/05/19 06:18:43;;;;;;;4.70;1.98;;;;;;;15.35;32.00;102072.22;5030601;28;20511;-59
2023/05/19 06:21:13;;;;;;;4.18;2.33;;;;;;;15.47;31.52;102076.66;5041650;28;20064;-60
2023/05/19 06:23:42;;;;;;;4.85;2.40;;;;;;;15.53;31.33;102070.59;5031465;28;20084;-61
2023/05/19 06:26:11;;;;;;;4.72;2.05;;;;;;;15.60;31.75;102070.91;5019559;28;20492;-57
2023/05/19 06:28:39;;;;;;;3.90;2.08;;;;;;;15.68;31.36;102074.72;5040803;28;20489;-60
2023/05/19 06:31:07;;;;;;;3.83;1.73;;;;;;;15.77;31.05;102078.53;5020665;28;20053;-57
2023/05/19 06:34:02;;;;;;;5.07;2.00;;;;;;;15.82;31.28;102079.03;5044311;28;20053;-60
2023/05/19 06:36:33;;;;;;;5.20;1.80;;;;;;;15.92;30.34;102081.81;5046061;28;20055;-60
2023/05/19 06:39:02;;;;;;;5.28;1.95;;;;;;;15.94;30.44;102079.78;5050205;28;20044;-59
2023/05/19 06:41:31;;;;;;;4.00;2.10;;;;;;;16.00;30.46;102079.22;5022277;28;20052;-59
2023/05/19 06:43:59;;;;;;;4.50;1.90;;;;;;;16.03;30.17;102076.16;5028308;28;20599;-60
2023/05/19 06:46:32;;;;;;;3.45;1.70;;;;;;;16.07;30.69;102077.66;5019695;28;20132;-58
2023/05/19 06:49:00;;;;;;;3.95;1.75;;;;;;;16.15;30.61;102083.34;5031405;28;20056;-60
2023/05/19 06:51:34;;;;;;;4.20;2.15;;;;;;;16.23;30.04;102078.91;5015608;28;20057;-60
2023/05/19 06:54:02;;;;;;;3.75;1.88;;;;;;;16.25;30.07;102079.59;5039046;28;20052;-60
2023/05/19 06:56:30;;;;;;;4.75;2.03;;;;;;;16.33;29.69;102080.81;5047817;28;20053;-62
2023/05/19 06:58:58;;;;;;;3.90;1.90;;;;;;;16.41;30.63;102079.06;5040144;28;20629;-63
2023/05/19 07:01:31;;;;;;;3.35;1.50;;;;;;;16.44;29.88;102080.66;5018474;28;20041;-62
2023/05/19 07:03:59;;;;;;;4.85;2.00;;;;;;;16.53;30.12;102082.56;5020736;28;20603;-60
2023/05/19 07:06:28;;;;;;;4.63;1.70;;;;;;;16.60;29.79;102079.06;5014905;28;20045;-60
2023/05/19 07:08:57;;;;;;;5.07;1.90;;;;;;;16.69;29.22;102079.22;5033722;28;20038;-59
2023/05/19 07:11:26;;;;;;;3.97;1.90;;;;;;;16.71;29.45;102078.06;5019813;28;20052;-59
2023/05/19 07:13:54;;;;;;;3.83;1.85;;;;;;;16.79;29.06;102082.88;5016770;28;20046;-59
2023/05/19 07:16:27;;;;;;;5.38;1.80;;;;;;;16.87;29.05;102081.13;5020775;28;20387;-60
2023/05/19 07:18:55;;;;;;;4.25;1.88;;;;;;;16.93;29.26;102071.38;5019799;28;20085;-59
2023/05/19 07:21:23;;;;;;;3.33;1.50;;;;;;;16.99;28.70;102071.69;5014715;28;20049;-59
2023/05/19 07:23:51;;;;;;;4.82;1.60;;;;;;;17.10;28.53;102080.84;5027630;28;20048;-58
2023/05/19 07:26:21;;;;;;;4.57;2.13;;;;;;;17.17;28.72;102077.34;5033195;28;20033;-59
2023/05/19 07:28:50;;;;;;;4.70;1.70;;;;;;;17.22;28.30;102076.91;5036530;28;20045;-60
2023/05/19 07:31:19;;;;;;;5.13;1.80;;;;;;;17.29;28.22;102078.94;5020951;28;20046;-62
2023/05/19 07:33:47;;;;;;;4.47;1.65;;;;;;;17.30;28.40;102071.50;5037270;28;20692;-61
2023/05/19 07:36:15;;;;;;;4.93;2.00;;;;;;;17.33;27.76;102074.81;5035855;28;20037;-62
2023/05/19 07:38:43;;;;;;;3.92;1.90;;;;;;;17.38;28.23;102072.50;5041446;28;20037;-62
2023/05/19 07:41:11;;;;;;;3.45;1.70;;;;;;;17.43;27.98;102071.16;5033624;28;20451;-71
2023/05/19 07:43:40;;;;;;;4.15;1.80;;;;;;;17.49;27.83;102073.31;5035113;28;20039;-70
2023/05/19 07:46:10;;;;;;;4.28;1.77;;;;;;;17.53;28.09;102070.13;5033508;28;20049;-67
2023/05/19 07:48:38;;;;;;;4.18;1.77;;;;;;;17.54;28.20;102066.34;5039004;28;20507;-66
2023/05/19 07:51:08;;;;;;;4.00;1.67;;;;;;;17.61;27.92;102061.94;5039682;28;20120;-66
2023/05/19 07:53:36;;;;;;;3.35;1.50;;;;;;;17.66;28.22;102061.47;5032933;28;20442;-67
2023/05/19 07:56:05;;;;;;;4.72;1.75;;;;;;;17.69;27.84;102063.94;5021795;28;20452;-69
2023/05/19 07:58:33;;;;;;;6.13;2.10;;;;;;;17.68;27.33;102057.53;5035786;28;20048;-71
2023/05/19 08:01:02;;;;;;;3.50;1.60;;;;;;;17.74;26.93;102059.72;5015417;28;20156;-68
2023/05/19 08:03:30;;;;;;;4.30;1.70;;;;;;;17.75;27.43;102055.06;5017273;28;20420;-69
2023/05/19 08:05:58;;;;;;;4.60;1.70;;;;;;;17.77;26.66;102053.88;5038377;28;20445;-67
2023/05/19 08:08:26;;;;;;;4.75;2.17;;;;;;;17.78;27.00;102043.69;5021149;28;20163;-68
2023/05/19 08:10:54;;;;;;;3.67;1.60;;;;;;;17.82;26.66;102044.22;5035214;28;20140;-67
2023/05/19 08:13:22;;;;;;;4.07;1.60;;;;;;;17.86;26.71;102046.56;5039852;28;20049;-68
2023/05/19 08:15:50;;;;;;;3.75;1.80;;;;;;;17.88;27.06;102038.97;5040450;28;20083;-68
2023/05/19 08:18:20;;;;;;;3.83;1.65;;;;;;;17.96;26.84;102044.63;5042462;28;20041;-70
2023/05/19 08:20:48;;;;;;;4.15;2.10;;;;;;;17.94;26.43;102041.13;5034764;28;20053;-69
2023/05/19 08:23:16;;;;;;;3.95;1.85;;;;;;;17.94;26.14;102037.47;5037097;28;20048;-66
2023/05/19 08:25:44;;;;;;;3.60;1.70;;;;;;;18.00;26.43;102037.72;5041502;28;20033;-69
2023/05/19 08:28:12;;;;;;;3.55;1.80;;;;;;;18.04;26.64;102030.88;5038888;28;20144;-71
2023/05/19 08:30:40;;;;;;;3.58;1.80;;;;;;;18.07;26.41;102036.06;5030411;28;20132;-69
2023/05/19 08:33:08;;;;;;;4.28;1.60;;;;;;;18.07;26.16;102035.19;5040148;28;20044;-70
2023/05/19 08:35:37;;;;;;;4.10;1.70;;;;;;;18.13;25.50;102031.84;5041109;28;20103;-70
2023/05/19 08:38:05;;;;;;;4.20;1.88;;;;;;;18.10;25.89;102029.38;5014327;28;20049;-70
2023/05/19 08:40:34;;;;;;;4.53;1.60;;;;;;;18.14;25.19;102030.81;5042144;28;20053;-69
2023/05/19 08:43:03;;;;;;;4.05;1.70;;;;;;;18.16;25.34;102023.19;5041281;28;20069;-68
2023/05/19 08:45:33;;;;;;;4.38;1.55;;;;;;;18.18;25.16;102015.59;5037178;28;20129;-69
2023/05/19 08:48:02;;;;;;;4.35;1.40;;;;;;;18.22;25.64;102010.63;5029153;28;20061;-69
2023/05/19 08:50:32;;;;;;;4.68;1.83;;;;;;;18.22;25.41;102000.41;5035886;28;20386;-70
2023/05/19 08:53:08;;;;;;;4.05;2.00;;;;;;;18.28;24.76;102008.09;5038479;28;20068;-71
2023/05/19 08:55:59;;;;;;;4.60;1.40;;;;;;;18.34;25.04;102014.91;5035207;28;20049;-70
2023/05/19 08:58:27;;;;;;;3.05;1.40;;;;;;;18.31;25.11;102010.53;5038725;28;20044;-70
2023/05/19 09:00:57;;;;;;;3.67;1.60;;;;;;;18.40;24.94;102005.94;5032896;28;20041;-72
2023/05/19 09:03:27;;;;;;;3.95;1.90;;;;;;;18.37;24.77;102012.69;5036354;28;20524;-74
2023/05/19 09:05:56;;;;;;;4.53;1.88;;;;;;;18.32;24.24;102001.19;5035871;28;20516;-69
2023/05/19 09:08:25;;;;;;;4.53;1.90;;;;;;;18.40;24.45;102006.81;5032537;28;20034;-69
2023/05/19 09:10:53;;;;;;;3.22;1.40;;;;;;;18.45;24.50;102006.38;5037505;28;20128;-69
2023/05/19 09:13:21;;;;;;;2.65;1.48;;;;;;;18.48;24.79;102003.25;5011498;28;20494;-69
2023/05/19 09:15:52;;;;;;;3.20;1.55;;;;;;;18.51;24.46;102001.09;5040595;28;20083;-70
2023/05/19 09:18:20;;;;;;;3.10;1.50;;;;;;;18.55;24.36;101995.22;5035992;28;20107;-69
2023/05/19 09:20:48;;;;;;;4.32;1.50;;;;;;;18.62;24.64;101999.09;5041052;28;20045;-68
2023/05/19 09:23:17;;;;;;;6.63;2.00;;;;;;;18.65;24.10;101990.44;5014713;28;20140;-70
2023/05/19 09:25:50;;;;;;;4.13;1.40;;;;;;;18.72;23.37;101986.03;5040338;28;20052;-69
2023/05/19 09:28:25;;;;;;;4.25;1.77;;;;;;;18.75;23.74;101994.88;5034874;28;20045;-70
2023/05/19 09:31:04;;;;;;;4.07;1.73;;;;;;;18.79;24.24;101984.34;5041414;28;20596;-71
2023/05/19 09:33:34;;;;;;;3.50;1.45;;;;;;;18.83;23.98;101985.75;5035252;28;20508;-70
2023/05/19 09:36:04;;;;;;;4.32;1.80;;;;;;;18.82;23.91;101986.78;5017629;28;20565;-71
2023/05/19 09:38:33;;;;;;;3.70;1.65;;;;;;;18.87;24.37;101982.50;5039762;28;20689;-69
2023/05/19 09:41:02;;;;;;;3.05;1.58;;;;;;;18.96;24.31;101977.91;5041102;28;20124;-70
2023/05/19 09:43:32;;;;;;;3.80;1.48;;;;;;;18.98;24.22;101974.94;5038960;28;20037;-71
2023/05/19 09:46:01;;;;;;;5.07;1.67;;;;;;;19.03;23.93;101972.56;5011885;28;20420;-69
2023/05/19 09:48:29;;;;;;;3.92;1.55;;;;;;;19.05;23.81;101965.78;5036293;28;20447;-70
2023/05/19 09:50:57;;;;;;;3.75;1.60;;;;;;;19.10;23.47;101968.09;5042445;28;20045;-69
2023/05/19 09:53:25;;;;;;;5.20;1.83;;;;;;;19.15;23.60;101954.59;5037587;28;20182;-70
2023/05/19 09:55:56;;;;;;;4.13;1.60;;;;;;;19.18;23.18;101955.13;5034385;28;20505;-69
2023/05/19 09:58:26;;;;;;;2.55;1.45;;;;;;;19.26;23.54;101951.56;5022462;28;20064;-71
2023/05/19 10:00:55;;;;;;;3.85;1.67;;;;;;;19.30;24.13;101952.97;5033605;28;20055;-71
2023/05/19 10:03:23;;;;;;;3.85;1.77;;;;;;;19.27;23.37;101962.50;5037895;28;20053;-70
2023/05/19 10:05:53;;;;;;;3.35;1.67;;;;;;;19.37;23.01;101956.84;5035276;28;20049;-70
2023/05/19 10:08:23;;;;;;;3.97;1.65;;;;;;;19.40;23.12;101952.84;5036229;28;20091;-72
2023/05/19 10:10:51;;;;;;;2.92;1.30;;;;;;;19.46;23.58;101954.97;5023735;28;20045;-72
2023/05/19 10:13:21;;;;;;;3.85;1.65;;;;;;;19.49;23.04;101958.28;5037391;28;20107;-71
2023/05/19 10:15:51;;;;;;;3.30;1.60;;;;;;;19.56;23.01;101964.91;5042887;28;20053;-69
2023/05/19 10:18:25;;;;;;;4.38;1.50;;;;;;;19.59;23.03;101959.03;5032651;23;20076;-71
2023/05/19 10:20:54;;;;;;;4.25;1.70;;;;;;;19.61;23.22;101959.75;5025662;28;20578;-71
2023/05/19 10:23:22;;;;;;;3.17;1.42;;;;;;;19.70;23.73;101960.63;5018840;28;20042;-71
2023/05/19 10:25:52;;;;;;;4.22;1.40;;;;;;;19.76;22.96;101959.09;4997255;28;20046;-69
2023/05/19 10:28:26;;;;;;;3.20;1.30;;;;;;;19.83;23.47;101943.47;5009510;28;20429;-70
2023/05/19 10:31:00;;;;;;;3.45;1.52;;;;;;;19.85;22.89;101950.63;5005201;28;20052;-70
2023/05/19 10:33:39;;;;;;;3.40;1.70;;;;;;;19.90;22.45;101944.53;5008855;28;20504;-67
2023/05/19 10:36:25;;;;;;;4.18;1.58;;;;;;;19.95;22.16;101950.50;5000300;28;20046;-70
2023/05/19 10:39:00;;;;;;;6.70;1.60;;;;;;;19.97;22.15;101946.50;4984119;28;20042;-69
2023/05/19 10:41:37;;;;;;;4.25;1.73;;;;;;;20.03;22.48;101953.31;4989814;28;20057;-66
2023/05/19 10:44:13;;;;;;;3.53;1.40;;;;;;;20.02;22.26;101946.88;5003207;28;20042;-70
2023/05/19 10:46:43;;;;;;;3.20;1.77;;;;;;;20.06;22.75;101950.16;4990703;28;20137;-70
2023/05/19 10:49:20;;;;;;;2.80;1.40;;;;;;;20.13;22.72;101936.47;4998114;28;20452;-69
2023/05/19 10:51:48;;;;;;;3.50;1.80;;;;;;;20.13;22.52;101939.22;5002685;28;20513;-70
2023/05/19 10:54:19;;;;;;;4.13;1.80;;;;;;;20.14;22.88;101943.75;5001572;28;20050;-68
2023/05/19 10:56:47;;;;;;;3.85;1.60;;;;;;;20.20;22.50;101935.59;4989804;28;20057;-69
2023/05/19 10:59:31;;;;;;;3.97;1.50;;;;;;;20.25;21.90;101941.53;4995390;28;20080;-68
2023/05/19 11:02:05;;;;;;;3.70;1.50;;;;;;;20.29;22.49;101939.25;4985977;28;20169;-70
2023/05/19 11:04:40;;;;;;;5.57;1.90;;;;;;;20.36;22.68;101935.63;4998226;28;20151;-68
2023/05/19 11:07:09;;;;;;;3.70;1.80;;;;;;;20.39;22.89;101935.28;5001373;28;20134;-69
2023/05/19 11:09:40;;;;;;;3.85;1.60;;;;;;;20.47;21.99;101937.19;4990689;28;20405;-69
2023/05/19 11:12:10;;;;;;;3.73;1.37;;;;;;;20.47;22.51;101928.84;4995224;28;20046;-70
2023/05/19 11:14:39;;;;;;;2.90;1.50;;;;;;;20.54;22.35;101929.88;4998715;28;20065;-67
2023/05/19 11:17:14;;;;;;;2.97;1.50;;;;;;;20.64;22.21;101924.19;4998219;28;20378;-68
2023/05/19 11:19:53;;;;;;;4.70;1.75;;;;;;;20.65;21.54;101926.78;5002739;28;20054;-72
2023/05/19 11:22:23;;;;;;;3.72;1.50;;;;;;;20.72;22.68;101915.81;4986131;28;20049;-71
2023/05/19 11:24:54;;;;;;;3.78;1.83;;;;;;;20.74;22.44;101920.19;5005499;28;20068;-73
2023/05/19 11:27:27;;;;;;;2.63;1.50;;;;;;;20.78;21.14;101918.78;5002073;28;20046;-71
2023/05/19 11:29:56;;;;;;;4.47;1.50;;;;;;;20.85;22.43;101932.00;5003333;28;20095;-61
2023/05/19 11:32:29;;;;;;;2.97;1.50;;;;;;;20.92;22.29;101921.91;5004348;28;20134;-61
2023/05/19 11:34:57;;;;;;;3.78;1.52;;;;;;;20.93;22.49;101923.63;5000016;28;20072;-62
2023/05/19 11:37:27;;;;;;;4.78;1.70;;;;;;;20.97;22.00;101922.22;4998452;28;22437;-61
2023/05/19 11:39:55;;;;;;;3.15;1.40;;;;;;;20.99;21.90;101918.22;4998799;28;20042;-61